createdAt,value
2023-02-11T00:02:34.548Z,21.52
2023-02-11T00:05:36.236Z,21.02
2023-02-11T00:08:38.878Z,24.42
2023-02-11T00:11:40.582Z,20.35
2023-02-11T00:14:42.228Z,22.30
2023-02-11T00:17:43.939Z,21.87
2023-02-11T00:20:45.584Z,23.83
2023-02-11T00:23:47.748Z,23.77
2023-02-11T00:26:49.364Z,23.02
2023-02-11T00:29:51.022Z,23.02
2023-02-11T00:32:52.698Z,24.48
2023-02-11T00:35:54.361Z,24.05
2023-02-11T00:38:57.410Z,24.77
2023-02-11T00:41:59.073Z,23.77
2023-02-11T00:45:00.714Z,23.40
2023-02-11T00:48:02.363Z,24.60
2023-02-11T00:51:04.353Z,23.60
2023-02-11T00:54:06.866Z,23.92
2023-02-11T00:57:08.549Z,23.23
2023-02-11T01:00:12.857Z,23.23
2023-02-11T01:03:14.566Z,24.17
2023-02-11T01:06:16.528Z,21.77
2023-02-11T01:09:18.335Z,23.05
2023-02-11T01:12:20.213Z,23.62
2023-02-11T01:15:22.339Z,24.00
2023-02-11T01:18:24.849Z,25.17
2023-02-11T01:21:26.511Z,26.73
2023-02-11T01:24:28.282Z,23.90
2023-02-11T01:27:29.938Z,25.30
2023-02-11T01:30:31.655Z,23.62
2023-02-11T01:33:33.335Z,25.55
2023-02-11T01:36:34.979Z,22.92
2023-02-11T01:39:37.155Z,26.35
2023-02-11T01:42:39.158Z,24.87
2023-02-11T01:45:49.996Z,26.37
2023-02-11T01:49:07.353Z,25.65
2023-02-11T01:52:20.140Z,26.42
2023-02-11T01:55:40.370Z,28.00
2023-02-11T01:58:44.525Z,26.08
2023-02-11T02:01:52.122Z,27.55
2023-02-11T02:05:02.701Z,25.02
2023-02-11T02:08:17.520Z,25.17
2023-02-11T02:11:19.217Z,26.23
2023-02-11T02:14:20.931Z,25.27
2023-02-11T02:17:38.500Z,26.62
2023-02-11T02:21:13.734Z,26.25
2023-02-11T02:24:27.217Z,25.77
2023-02-11T02:27:28.828Z,25.35
2023-02-11T02:30:36.166Z,26.37
2023-02-11T02:33:47.836Z,27.75
2023-02-11T02:37:04.618Z,27.42
2023-02-11T02:40:22.774Z,26.50
2023-02-11T02:43:27.138Z,28.52
2023-02-11T02:46:33.942Z,27.20
2023-02-11T02:49:35.646Z,29.15
2023-02-11T02:52:55.273Z,27.23
2023-02-11T02:56:15.070Z,27.20
2023-02-11T02:59:19.792Z,25.95
2023-02-11T03:02:22.151Z,28.00
2023-02-11T03:05:31.426Z,26.90
2023-02-11T03:08:40.746Z,26.52
2023-02-11T03:11:42.463Z,25.42
2023-02-11T03:14:45.390Z,24.30
2023-02-11T03:17:51.277Z,27.90
2023-02-11T03:20:54.974Z,26.67
2023-02-11T03:24:07.870Z,26.25
2023-02-11T03:27:21.129Z,26.42
2023-02-11T03:30:30.297Z,28.40
2023-02-11T03:33:47.945Z,27.50
2023-02-11T03:37:00.442Z,27.45
2023-02-11T03:40:13.084Z,28.92
2023-02-11T03:43:22.858Z,26.02
2023-02-11T03:46:32.193Z,24.70
2023-02-11T03:49:36.450Z,28.10
2023-02-11T03:52:38.771Z,26.73
2023-02-11T03:55:42.455Z,27.65
2023-02-11T03:58:48.499Z,27.60
2023-02-11T04:01:50.229Z,28.25
2023-02-11T04:04:51.905Z,28.10
2023-02-11T04:07:53.596Z,27.00
2023-02-11T04:10:55.220Z,27.27
2023-02-11T04:13:56.900Z,28.95
2023-02-11T04:16:58.593Z,28.58
2023-02-11T04:20:00.226Z,30.27
2023-02-11T04:23:01.882Z,27.70
2023-02-11T04:26:03.836Z,26.62
2023-02-11T04:29:05.534Z,27.40
2023-02-11T04:32:07.335Z,27.73
2023-02-11T04:35:09.061Z,29.27
2023-02-11T04:38:10.722Z,29.48
2023-02-11T04:41:12.380Z,29.33
2023-02-11T04:44:14.085Z,27.02
2023-02-11T04:47:15.933Z,26.80
2023-02-11T04:50:17.707Z,28.75
2023-02-11T04:53:19.411Z,29.37
2023-02-11T04:56:21.088Z,28.80
2023-02-11T04:59:22.724Z,28.08
2023-02-11T05:02:24.371Z,27.45
2023-02-11T05:05:26.063Z,28.23
2023-02-11T05:08:27.952Z,27.73
2023-02-11T05:11:29.677Z,27.25
2023-02-11T05:14:31.358Z,27.08
2023-02-11T05:17:33.022Z,27.90
2023-02-11T05:20:34.755Z,27.48
2023-02-11T05:23:36.841Z,27.98
2023-02-11T05:26:38.477Z,29.30
2023-02-11T05:29:40.136Z,28.80
2023-02-11T05:32:41.905Z,26.90
2023-02-11T05:35:43.634Z,27.30
2023-02-11T05:38:45.294Z,28.50
2023-02-11T05:41:46.998Z,28.10
2023-02-11T05:44:50.628Z,26.77
2023-02-11T05:47:52.425Z,28.67
2023-02-11T05:50:54.099Z,29.20
2023-02-11T05:53:55.784Z,27.50
2023-02-11T05:56:57.485Z,27.73
2023-02-11T05:59:59.171Z,26.27
2023-02-11T06:03:00.972Z,27.08
2023-02-11T06:06:02.632Z,27.40
2023-02-11T06:09:04.404Z,26.85
2023-02-11T06:12:06.218Z,25.62
2023-02-11T06:15:08.109Z,24.75
2023-02-11T06:18:09.834Z,26.15
2023-02-11T06:21:12.294Z,24.87
2023-02-11T06:24:14.069Z,26.85
2023-02-11T06:27:15.681Z,26.58
2023-02-11T06:30:17.429Z,26.45
2023-02-11T06:33:19.197Z,24.77
2023-02-11T06:36:22.952Z,25.55
2023-02-11T06:39:24.626Z,27.20
2023-02-11T06:42:26.383Z,26.67
2023-02-11T06:45:28.034Z,26.40
2023-02-11T06:48:29.685Z,26.58
2023-02-11T06:51:31.491Z,26.17
2023-02-11T06:54:33.242Z,25.98
2023-02-11T06:57:34.990Z,25.92
2023-02-11T07:00:37.056Z,26.67
2023-02-11T07:03:40.789Z,26.35
2023-02-11T07:06:42.585Z,28.05
2023-02-11T07:09:44.366Z,27.08
2023-02-11T07:12:45.984Z,23.58
2023-02-11T07:15:47.994Z,26.45
2023-02-11T07:18:50.053Z,25.17
2023-02-11T07:21:51.754Z,26.58
2023-02-11T07:24:53.443Z,26.55
2023-02-11T07:27:55.157Z,26.02
2023-02-11T07:30:56.910Z,25.37
2023-02-11T07:34:01.052Z,26.23
2023-02-11T07:37:03.164Z,25.30
2023-02-11T07:40:05.221Z,25.50
2023-02-11T07:43:06.853Z,25.30
2023-02-11T07:46:14.986Z,25.12
2023-02-11T07:49:16.977Z,25.02
2023-02-11T07:52:18.863Z,23.90
2023-02-11T07:55:20.492Z,23.65
2023-02-11T07:58:22.123Z,23.92
2023-02-11T08:01:28.367Z,24.98
2023-02-11T08:04:30.156Z,24.98
2023-02-11T08:07:32.376Z,22.95
2023-02-11T08:10:34.008Z,24.08
2023-02-11T08:13:36.215Z,24.30
2023-02-11T08:16:39.042Z,23.50
2023-02-11T08:19:40.822Z,22.87
2023-02-11T08:22:42.485Z,22.80
2023-02-11T08:25:44.102Z,24.87
2023-02-11T08:28:47.747Z,23.30
2023-02-11T08:31:49.723Z,22.95
2023-02-11T08:34:52.411Z,25.10
2023-02-11T08:37:54.148Z,23.80
2023-02-11T08:40:55.756Z,23.35
2023-02-11T08:43:58.297Z,24.67
2023-02-11T08:46:59.953Z,25.15
2023-02-11T08:50:01.585Z,23.58
2023-02-11T08:53:03.343Z,23.58
2023-02-11T08:56:06.230Z,28.08
2023-02-11T08:59:09.511Z,25.12
2023-02-11T09:02:14.121Z,24.55
2023-02-11T09:05:15.949Z,23.83
2023-02-11T09:08:17.623Z,23.00
2023-02-11T09:11:21.876Z,21.33
2023-02-11T09:14:24.679Z,21.42
2023-02-11T09:17:26.404Z,21.98
2023-02-11T09:20:28.379Z,22.10
2023-02-11T09:23:30.291Z,22.98
2023-02-11T09:26:34.200Z,21.05
2023-02-11T09:29:35.850Z,21.55
2023-02-11T09:32:37.539Z,20.67
2023-02-11T09:35:39.175Z,21.00
2023-02-11T09:38:40.858Z,21.27
2023-02-11T09:41:51.383Z,20.83
2023-02-11T09:44:53.262Z,20.33
2023-02-11T09:48:06.432Z,23.00
2023-02-11T09:51:23.851Z,20.30
2023-02-11T09:54:37.602Z,19.95
2023-02-11T09:57:39.314Z,21.08
2023-02-11T10:00:52.222Z,21.90
2023-02-11T10:03:56.893Z,21.85
2023-02-11T10:07:11.005Z,21.95
2023-02-11T10:10:44.489Z,22.02
2023-02-11T10:14:05.786Z,21.62
2023-02-11T10:17:32.475Z,21.10
2023-02-11T10:20:39.363Z,21.70
2023-02-11T10:23:45.264Z,22.13
2023-02-11T10:26:47.161Z,21.40
2023-02-11T10:29:57.322Z,21.33
2023-02-11T10:33:24.792Z,22.48
2023-02-11T10:36:30.520Z,21.73
2023-02-11T10:39:32.323Z,22.90
2023-02-11T10:42:35.780Z,21.80
2023-02-11T10:45:48.702Z,22.37
2023-02-11T10:48:53.817Z,23.15
2023-02-11T10:52:23.849Z,23.50
2023-02-11T10:55:28.756Z,21.20
2023-02-11T10:58:47.033Z,22.15
2023-02-11T11:01:51.320Z,22.13
2023-02-11T11:04:57.647Z,21.45
2023-02-11T11:08:05.968Z,22.25
2023-02-11T11:11:11.001Z,21.23
2023-02-11T11:14:20.510Z,21.52
2023-02-11T11:17:22.658Z,23.27
2023-02-11T11:20:35.254Z,23.48
2023-02-11T11:23:37.917Z,24.65
2023-02-11T11:26:48.659Z,22.58
2023-02-11T11:29:53.745Z,26.50
2023-02-11T11:32:56.790Z,22.35
2023-02-11T11:36:23.650Z,21.67
2023-02-11T11:39:29.522Z,20.48
2023-02-11T11:42:34.037Z,20.80
2023-02-11T11:45:36.052Z,21.25
2023-02-11T11:48:42.964Z,21.12
2023-02-11T11:51:58.622Z,20.55
2023-02-11T11:55:12.378Z,19.92
2023-02-11T11:58:21.216Z,19.00
2023-02-11T12:01:41.676Z,19.60
2023-02-11T12:04:51.640Z,18.75
2023-02-11T12:08:18.261Z,19.33
2023-02-11T12:11:19.930Z,18.70
2023-02-11T12:14:28.920Z,16.95
2023-02-11T12:17:44.175Z,17.52
2023-02-11T12:20:46.064Z,17.15
2023-02-11T12:24:12.222Z,16.62
2023-02-11T12:27:25.105Z,19.27
2023-02-11T12:30:50.874Z,18.15
2023-02-11T12:34:13.519Z,17.17
2023-02-11T12:37:30.660Z,17.87
2023-02-11T12:40:46.384Z,18.40
2023-02-11T12:43:48.634Z,17.98
2023-02-11T12:47:01.368Z,18.02
2023-02-11T12:50:21.778Z,17.17
2023-02-11T12:53:32.667Z,17.30
2023-02-11T12:56:45.526Z,17.73
2023-02-11T13:00:02.519Z,15.45
2023-02-11T13:03:17.022Z,14.35
2023-02-11T13:06:27.820Z,14.50
2023-02-11T13:09:46.863Z,15.93
2023-02-11T13:13:10.363Z,15.90
2023-02-11T13:16:37.083Z,15.82
2023-02-11T13:19:48.336Z,16.67
2023-02-11T13:23:12.266Z,16.25
2023-02-11T13:26:24.990Z,15.73
2023-02-11T13:29:56.753Z,16.45
2023-02-11T13:33:01.070Z,17.00
2023-02-11T13:36:04.736Z,17.23
2023-02-11T13:39:07.211Z,16.98
2023-02-11T13:42:16.555Z,18.75
2023-02-11T13:45:46.347Z,19.83
2023-02-11T13:48:52.702Z,16.48
2023-02-11T13:51:56.314Z,16.55
2023-02-11T13:55:15.259Z,19.05
2023-02-11T13:58:46.474Z,20.30
2023-02-11T14:02:14.433Z,15.07
2023-02-11T14:05:34.802Z,15.93
2023-02-11T14:08:55.362Z,16.02
2023-02-11T14:12:31.132Z,16.80
2023-02-11T14:15:41.469Z,14.75
2023-02-11T14:18:49.233Z,15.93
2023-02-11T14:21:51.107Z,15.82
2023-02-11T14:25:00.993Z,14.57
2023-02-11T14:28:24.408Z,14.98
2023-02-11T14:31:41.508Z,14.10
2023-02-11T14:35:27.788Z,15.33
2023-02-11T14:38:41.045Z,13.43
2023-02-11T14:41:46.344Z,13.62
2023-02-11T14:44:50.906Z,14.02
2023-02-11T14:48:23.289Z,15.07
2023-02-11T14:51:31.334Z,12.50
2023-02-11T14:54:35.404Z,14.20
2023-02-11T14:57:38.266Z,14.87
2023-02-11T15:01:21.461Z,14.00
2023-02-11T15:04:28.082Z,14.43
2023-02-11T15:07:30.455Z,14.15
2023-02-11T15:10:37.945Z,13.57
2023-02-11T15:13:47.549Z,13.77
2023-02-11T15:16:51.350Z,14.00
2023-02-11T15:20:01.100Z,13.55
2023-02-11T15:23:07.566Z,12.85
2023-02-11T15:26:23.320Z,12.13
2023-02-11T15:29:34.958Z,13.43
2023-02-11T15:32:41.614Z,12.63
2023-02-11T15:35:45.026Z,12.97
2023-02-11T15:39:07.519Z,12.00
2023-02-11T15:42:27.239Z,11.65
2023-02-11T15:45:37.565Z,13.40
2023-02-11T15:48:54.174Z,13.52
2023-02-11T15:51:58.446Z,12.68
2023-02-11T15:55:03.251Z,10.93
2023-02-11T15:58:05.892Z,11.90
2023-02-11T16:01:11.768Z,12.13
2023-02-11T16:04:22.244Z,13.27
2023-02-11T16:07:41.664Z,12.55
2023-02-11T16:10:58.818Z,12.60
2023-02-11T16:14:05.153Z,13.63
2023-02-11T16:17:24.296Z,11.50
2023-02-11T16:20:27.172Z,11.15
2023-02-11T16:23:37.229Z,12.15
2023-02-11T16:26:45.725Z,12.88
2023-02-11T16:29:49.883Z,12.37
2023-02-11T16:32:53.912Z,13.80
2023-02-11T16:35:56.887Z,13.18
2023-02-11T16:38:59.404Z,12.07
2023-02-11T16:42:06.421Z,13.55
2023-02-11T16:45:10.625Z,13.68
2023-02-11T16:48:19.786Z,12.32
2023-02-11T16:51:22.685Z,12.80
2023-02-11T16:54:25.457Z,13.00
2023-02-11T16:57:30.207Z,13.68
2023-02-11T17:00:34.069Z,12.88
2023-02-11T17:03:40.977Z,13.23
2023-02-11T17:06:43.580Z,12.30
2023-02-11T17:09:45.898Z,12.37
2023-02-11T17:12:50.056Z,13.62
2023-02-11T17:15:54.251Z,12.95
2023-02-11T17:18:58.847Z,12.95
2023-02-11T17:22:01.614Z,12.93
2023-02-11T17:25:04.355Z,13.80
2023-02-11T17:28:08.394Z,14.05
2023-02-11T17:31:11.381Z,13.60
2023-02-11T17:34:14.102Z,14.45
2023-02-11T17:37:16.651Z,14.38
2023-02-11T17:40:24.485Z,14.40
2023-02-11T17:43:27.871Z,12.75
2023-02-11T17:46:30.881Z,13.77
2023-02-11T17:49:33.280Z,13.68
2023-02-11T17:52:37.400Z,14.60
2023-02-11T17:55:40.307Z,13.82
2023-02-11T17:58:43.972Z,14.20
2023-02-11T18:01:46.968Z,15.65
2023-02-11T18:04:50.093Z,15.40
2023-02-11T18:07:52.751Z,13.98
2023-02-11T18:10:56.041Z,13.48
2023-02-11T18:14:07.884Z,16.17
2023-02-11T18:17:10.741Z,15.02
2023-02-11T18:20:13.787Z,15.75
2023-02-11T18:23:16.874Z,14.40
2023-02-11T18:26:22.863Z,14.80
2023-02-11T18:29:26.157Z,15.40
2023-02-11T18:32:29.084Z,17.02
2023-02-11T18:35:32.479Z,16.30
2023-02-11T18:38:35.689Z,16.77
2023-02-11T18:41:42.855Z,16.25
2023-02-11T18:44:45.113Z,17.05
2023-02-11T18:47:47.723Z,16.95
2023-02-11T18:50:50.596Z,17.70
2023-02-11T18:53:53.518Z,19.87
2023-02-11T18:56:56.447Z,19.15
2023-02-11T19:00:00.954Z,18.52
2023-02-11T19:03:03.477Z,20.10
2023-02-11T19:06:06.388Z,17.02
2023-02-11T19:09:11.836Z,17.98
2023-02-11T19:12:15.121Z,17.52
2023-02-11T19:15:18.698Z,18.15
2023-02-11T19:18:24.613Z,18.70
2023-02-11T19:21:27.322Z,17.62
2023-02-11T19:24:30.807Z,19.55
2023-02-11T19:27:37.330Z,19.73
2023-02-11T19:30:39.944Z,20.40
2023-02-11T19:33:43.948Z,19.70
2023-02-11T19:36:52.323Z,19.45
2023-02-11T19:39:55.236Z,19.98
2023-02-11T19:42:57.944Z,20.60
2023-02-11T19:46:05.961Z,20.48
2023-02-11T19:49:10.482Z,19.98
2023-02-11T19:52:13.007Z,19.35
2023-02-11T19:55:15.875Z,19.65
2023-02-11T19:58:21.185Z,19.95
2023-02-11T20:01:25.975Z,19.95
2023-02-11T20:04:32.609Z,18.52
2023-02-11T20:07:39.054Z,19.50
2023-02-11T20:10:44.191Z,19.80
2023-02-11T20:13:46.685Z,21.70
2023-02-11T20:16:52.292Z,20.85
2023-02-11T20:19:56.081Z,21.25
2023-02-11T20:23:02.203Z,21.52
2023-02-11T20:26:14.076Z,20.80
2023-02-11T20:29:18.295Z,21.95
2023-02-11T20:32:22.413Z,21.52
2023-02-11T20:35:25.396Z,21.87
2023-02-11T20:38:47.562Z,20.92
2023-02-11T20:41:51.522Z,20.35
2023-02-11T20:44:54.449Z,20.90
2023-02-11T20:47:57.795Z,20.48
2023-02-11T20:51:14.753Z,21.67
2023-02-11T20:54:22.452Z,19.98
2023-02-11T20:57:26.562Z,20.48
2023-02-11T21:00:28.997Z,20.58
2023-02-11T21:03:34.335Z,21.27
2023-02-11T21:06:46.028Z,20.30
2023-02-11T21:09:48.983Z,20.58
2023-02-11T21:12:52.019Z,20.35
2023-02-11T21:15:57.898Z,19.85
2023-02-11T21:19:01.677Z,20.33
2023-02-11T21:22:04.708Z,21.05
2023-02-11T21:25:09.068Z,20.85
2023-02-11T21:28:11.292Z,20.67
2023-02-11T21:31:32.877Z,21.12
2023-02-11T21:34:37.649Z,19.62
2023-02-11T21:37:41.108Z,19.45
2023-02-11T21:40:43.468Z,21.85
2023-02-11T21:43:46.164Z,21.05
2023-02-11T21:46:48.355Z,19.20
2023-02-11T21:49:50.594Z,20.90
2023-02-11T21:52:52.491Z,20.12
2023-02-11T21:56:04.434Z,20.58
2023-02-11T21:59:07.148Z,21.02
2023-02-11T22:02:11.318Z,20.25
2023-02-11T22:05:13.881Z,19.42
2023-02-11T22:08:17.530Z,19.67
2023-02-11T22:11:20.984Z,18.80
2023-02-11T22:14:22.800Z,20.27
2023-02-11T22:17:24.954Z,19.33
2023-02-11T22:20:26.744Z,19.27
2023-02-11T22:23:29.055Z,18.67
2023-02-11T22:26:30.838Z,18.42
2023-02-11T22:29:32.644Z,20.62
2023-02-11T22:32:34.322Z,19.75
2023-02-11T22:35:35.946Z,20.95
2023-02-11T22:38:37.621Z,20.50
2023-02-11T22:41:41.858Z,20.20
2023-02-11T22:44:43.527Z,20.60
2023-02-11T22:47:45.159Z,20.10
2023-02-11T22:50:46.774Z,20.70
2023-02-11T22:54:15.962Z,20.02
2023-02-11T22:57:17.612Z,19.80
2023-02-11T23:00:20.852Z,19.10
2023-02-11T23:03:22.616Z,19.90
2023-02-11T23:06:24.424Z,20.20
2023-02-11T23:09:26.105Z,21.45
2023-02-11T23:12:27.780Z,19.98
2023-02-11T23:15:29.555Z,18.58
2023-02-11T23:18:31.595Z,19.52
2023-02-11T23:21:35.396Z,18.95
2023-02-11T23:24:37.093Z,20.30
2023-02-11T23:27:38.788Z,20.27
2023-02-11T23:30:41.532Z,23.92
2023-02-11T23:33:43.306Z,23.83
2023-02-11T23:36:45.057Z,23.65
2023-02-11T23:39:46.769Z,24.52
2023-02-11T23:42:49.157Z,24.50
2023-02-11T23:45:52.341Z,23.17
2023-02-11T23:48:54.363Z,22.65
2023-02-11T23:51:56.402Z,24.12
2023-02-11T23:54:58.133Z,25.15
2023-02-11T23:57:59.849Z,25.60
